Terminal Aerodrome Forecast
Issued by NWS

Home | Current Version | Previous Version | Text Only | Print | Product List | Glossary Off
Versions: 1 2 3 4 5 6 7 8 9 10 11 12 13 14

000
FTUS43 KMPX 240826 AAA
TAFAXN
TAF AMD
KAXN 240826Z 2408/2506 03007KT P6SM BKN100
     FM241200 03014G20KT P6SM OVC080
     FM241800 36012G18KT P6SM SKC
     FM250100 36008KT P6SM SKC=

USA.gov is the U.S. government's official web portal to all federal, state and local government web resources and services.